Time;durP1;ratioP1;P1;durP2;ratioP2;P2;SDS_P1;SDS_P2;PMS_P1;PMS_P2;Temp;Humidity;BMP_temperature;BMP_pressure;BME280_temperature;BME280_humidity;BME280_pressure;Samples;Min_cycle;Max_cycle;Signal;HPM_P1;HPM_P2
2021/10/04 00:02:27;;;;;;;20.60;19.40;;;;;;;;;;5036047;28;20464;-84
2021/10/04 00:04:56;;;;;;;21.70;20.40;;;;;;;;;;5036268;28;20428;-84
2021/10/04 00:07:23;;;;;;;21.00;19.83;;;;;;;;;;5036138;28;20443;-84
2021/10/04 00:09:51;;;;;;;23.30;21.90;;;;;;;;;;5035943;28;20448;-84
2021/10/04 00:12:18;;;;;;;22.00;20.80;;;;;;;;;;5035529;28;20823;-84
2021/10/04 00:14:46;;;;;;;20.30;19.20;;;;;;;;;;5035806;28;20515;-83
2021/10/04 00:17:13;;;;;;;21.60;20.10;;;;;;;;;;5035889;28;20439;-84
2021/10/04 00:19:41;;;;;;;22.60;21.30;;;;;;;;;;5035288;28;20986;-83
2021/10/04 00:22:11;;;;;;;22.93;21.63;;;;;;;;;;5035644;28;20419;-84
2021/10/04 00:24:38;;;;;;;22.30;20.97;;;;;;;;;;5035651;28;20443;-84
2021/10/04 00:27:06;;;;;;;23.60;22.20;;;;;;;;;;5035441;28;20406;-84
2021/10/04 00:29:33;;;;;;;23.60;22.20;;;;;;;;;;5035732;28;20773;-84
2021/10/04 00:32:01;;;;;;;23.13;21.80;;;;;;;;;;5035672;28;20417;-84
2021/10/04 00:34:28;;;;;;;23.50;22.10;;;;;;;;;;5035491;28;20461;-84
2021/10/04 00:36:56;;;;;;;23.40;21.90;;;;;;;;;;5035635;28;20432;-84
2021/10/04 00:39:25;;;;;;;24.03;22.60;;;;;;;;;;5035182;28;20948;-84
2021/10/04 00:41:52;;;;;;;24.83;23.23;;;;;;;;;;5035045;28;20407;-84
2021/10/04 00:44:20;;;;;;;23.30;21.90;;;;;;;;;;5035185;28;20417;-84
2021/10/04 00:46:47;;;;;;;23.53;21.93;;;;;;;;;;5034980;28;20407;-85
2021/10/04 00:49:14;;;;;;;24.83;23.13;;;;;;;;;;5034884;28;20422;-84
2021/10/04 00:51:42;;;;;;;23.50;22.00;;;;;;;;;;5035253;28;20438;-84
2021/10/04 00:54:09;;;;;;;23.60;22.10;;;;;;;;;;5035156;28;20479;-84
2021/10/04 00:56:38;;;;;;;23.03;21.53;;;;;;;;;;5035056;28;20455;-84
2021/10/04 00:59:06;;;;;;;23.23;21.87;;;;;;;;;;5034791;28;20434;-84
2021/10/04 01:01:33;;;;;;;22.97;21.30;;;;;;;;;;5034751;28;20442;-84
2021/10/04 01:04:01;;;;;;;23.60;21.90;;;;;;;;;;5034872;28;20446;-84
2021/10/04 01:06:29;;;;;;;23.80;22.40;;;;;;;;;;5032845;28;20411;-84
2021/10/04 01:08:56;;;;;;;22.40;20.90;;;;;;;;;;5034690;28;20762;-84
2021/10/04 01:11:25;;;;;;;22.50;21.20;;;;;;;;;;5034525;28;20409;-84
2021/10/04 01:13:54;;;;;;;22.17;20.97;;;;;;;;;;5034251;28;20517;-84
2021/10/04 01:16:21;;;;;;;21.60;20.30;;;;;;;;;;5034428;28;20433;-83
2021/10/04 01:18:48;;;;;;;23.17;21.60;;;;;;;;;;5034490;28;20507;-84
2021/10/04 01:21:17;;;;;;;20.93;19.77;;;;;;;;;;5034759;28;20438;-83
2021/10/04 01:23:45;;;;;;;22.07;20.87;;;;;;;;;;5034617;28;20447;-84
2021/10/04 01:26:12;;;;;;;22.30;21.10;;;;;;;;;;5034502;28;20439;-84
2021/10/04 01:28:40;;;;;;;21.30;20.00;;;;;;;;;;5033078;28;20443;-84
2021/10/04 01:31:07;;;;;;;22.10;20.80;;;;;;;;;;5034033;28;20983;-83
2021/10/04 01:33:35;;;;;;;21.27;19.80;;;;;;;;;;5034061;28;20475;-84
2021/10/04 01:36:02;;;;;;;20.63;19.43;;;;;;;;;;5034196;28;20434;-84
2021/10/04 01:38:31;;;;;;;20.17;19.00;;;;;;;;;;5032956;28;20418;-84
2021/10/04 01:40:58;;;;;;;21.47;19.87;;;;;;;;;;5033938;28;20908;-84
2021/10/04 01:43:26;;;;;;;20.13;19.07;;;;;;;;;;5034242;28;20432;-84
2021/10/04 01:45:54;;;;;;;20.00;18.93;;;;;;;;;;5034351;28;20443;-84
2021/10/04 01:48:21;;;;;;;19.50;18.50;;;;;;;;;;5033711;28;20526;-83
2021/10/04 01:50:49;;;;;;;20.23;19.13;;;;;;;;;;5034087;28;20432;-84
2021/10/04 01:53:16;;;;;;;20.30;19.20;;;;;;;;;;5032610;28;20443;-83
2021/10/04 01:55:45;;;;;;;20.67;19.20;;;;;;;;;;5033662;28;20898;-84
2021/10/04 01:58:12;;;;;;;20.10;18.80;;;;;;;;;;5033672;28;20415;-83
2021/10/04 02:00:40;;;;;;;20.17;18.97;;;;;;;;;;5033669;28;20483;-84
2021/10/04 02:03:08;;;;;;;19.50;18.40;;;;;;;;;;5033802;28;20418;-84
2021/10/04 02:05:35;;;;;;;20.33;18.93;;;;;;;;;;5033889;28;20454;-84
2021/10/04 02:08:03;;;;;;;19.50;18.40;;;;;;;;;;5033483;28;20440;-84
2021/10/04 02:10:32;;;;;;;18.80;17.80;;;;;;;;;;5033376;28;20437;-84
2021/10/04 02:13:02;;;;;;;19.23;18.13;;;;;;;;;;5033444;28;20418;-84
2021/10/04 02:15:30;;;;;;;21.00;19.50;;;;;;;;;;5033611;28;20501;-84
2021/10/04 02:17:57;;;;;;;19.47;18.37;;;;;;;;;;5033448;28;20414;-83
2021/10/04 02:20:26;;;;;;;20.13;18.93;;;;;;;;;;5033520;28;20443;-84
2021/10/04 02:22:54;;;;;;;19.27;17.93;;;;;;;;;;5033539;28;20458;-84
2021/10/04 02:25:21;;;;;;;19.13;18.13;;;;;;;;;;5033553;28;20410;-83
2021/10/04 02:27:49;;;;;;;19.27;18.30;;;;;;;;;;5033287;28;20414;-84
2021/10/04 02:30:19;;;;;;;18.50;17.60;;;;;;;;;;5033252;28;20421;-83
2021/10/04 02:32:47;;;;;;;20.33;18.50;;;;;;;;;;5033350;28;20424;-83
2021/10/04 02:35:14;;;;;;;19.57;18.57;;;;;;;;;;5033003;28;20998;-84
2021/10/04 02:37:42;;;;;;;19.10;18.13;;;;;;;;;;5033407;28;20449;-84
2021/10/04 02:40:10;;;;;;;18.70;17.70;;;;;;;;;;5032930;28;20995;-84
2021/10/04 02:42:39;;;;;;;18.83;17.83;;;;;;;;;;5033352;28;20721;-84
2021/10/04 02:45:07;;;;;;;19.03;17.93;;;;;;;;;;5033356;28;20436;-84
2021/10/04 02:47:36;;;;;;;19.07;18.07;;;;;;;;;;5033140;28;20417;-83
2021/10/04 02:50:05;;;;;;;19.00;18.00;;;;;;;;;;5033315;28;20923;-84
2021/10/04 02:52:32;;;;;;;19.37;18.30;;;;;;;;;;5033158;28;20896;-84
2021/10/04 02:55:00;;;;;;;19.50;18.40;;;;;;;;;;5031789;28;20466;-84
2021/10/04 02:57:27;;;;;;;19.20;18.00;;;;;;;;;;5033292;28;20443;-84
2021/10/04 02:59:54;;;;;;;19.37;18.37;;;;;;;;;;5033088;28;20475;-84
2021/10/04 03:02:23;;;;;;;20.40;19.00;;;;;;;;;;5032669;28;20426;-84
2021/10/04 03:04:51;;;;;;;20.20;19.10;;;;;;;;;;5033051;28;20545;-83
2021/10/04 03:07:19;;;;;;;19.73;18.63;;;;;;;;;;5033128;28;20437;-84
2021/10/04 03:09:46;;;;;;;19.57;18.50;;;;;;;;;;5032894;28;20414;-84
2021/10/04 03:12:13;;;;;;;20.20;19.00;;;;;;;;;;5032874;28;20467;-84
2021/10/04 03:14:41;;;;;;;20.40;19.00;;;;;;;;;;5032858;28;20979;-84
2021/10/04 03:17:08;;;;;;;20.37;19.20;;;;;;;;;;5032996;28;20802;-84
2021/10/04 03:19:36;;;;;;;20.43;19.23;;;;;;;;;;5032792;28;20445;-84
2021/10/04 03:22:05;;;;;;;21.03;19.70;;;;;;;;;;5033209;28;20440;-84
2021/10/04 03:24:33;;;;;;;19.80;18.80;;;;;;;;;;5032637;28;20447;-83
2021/10/04 03:27:01;;;;;;;20.70;19.50;;;;;;;;;;5032858;28;20446;-84
2021/10/04 03:29:29;;;;;;;19.97;18.77;;;;;;;;;;5034311;28;20442;-84
2021/10/04 03:31:57;;;;;;;20.20;19.00;;;;;;;;;;5036491;28;20907;-84
2021/10/04 03:34:24;;;;;;;21.53;20.13;;;;;;;;;;5036574;28;20457;-84
2021/10/04 03:36:53;;;;;;;20.40;19.20;;;;;;;;;;5036753;28;20443;-84
2021/10/04 03:39:22;;;;;;;19.53;18.53;;;;;;;;;;5035185;28;20834;-83
2021/10/04 03:41:49;;;;;;;20.03;18.70;;;;;;;;;;5036618;28;20409;-84
2021/10/04 03:44:16;;;;;;;19.90;18.80;;;;;;;;;;5036277;28;20809;-84
2021/10/04 03:46:44;;;;;;;21.17;19.90;;;;;;;;;;5036711;28;20743;-84
2021/10/04 03:49:11;;;;;;;20.90;19.40;;;;;;;;;;5035992;28;20916;-84
2021/10/04 03:51:38;;;;;;;21.20;19.40;;;;;;;;;;5036165;28;20895;-84
2021/10/04 03:54:06;;;;;;;20.13;19.10;;;;;;;;;;5036490;28;20406;-84
2021/10/04 03:56:35;;;;;;;19.87;18.77;;;;;;;;;;5035985;28;20461;-84
2021/10/04 03:59:02;;;;;;;21.77;20.03;;;;;;;;;;5035653;28;20426;-83
2021/10/04 04:01:29;;;;;;;20.60;19.20;;;;;;;;;;5035974;28;20901;-84
2021/10/04 04:03:57;;;;;;;20.33;19.00;;;;;;;;;;5036054;28;20441;-84
2021/10/04 04:06:24;;;;;;;20.83;19.50;;;;;;;;;;5035895;28;20418;-84
2021/10/04 04:08:52;;;;;;;20.37;19.20;;;;;;;;;;5035878;28;20454;-85
2021/10/04 04:11:19;;;;;;;20.37;19.13;;;;;;;;;;5035808;28;20414;-84
2021/10/04 04:13:48;;;;;;;20.27;19.10;;;;;;;;;;5034492;28;20972;-84
2021/10/04 04:16:15;;;;;;;20.83;19.43;;;;;;;;;;5035875;28;20528;-84
2021/10/04 04:18:43;;;;;;;20.90;19.43;;;;;;;;;;5035731;28;20450;-84
2021/10/04 04:21:10;;;;;;;20.80;19.53;;;;;;;;;;5035883;28;20421;-84
2021/10/04 04:23:37;;;;;;;20.07;18.90;;;;;;;;;;5035528;28;20452;-84
2021/10/04 04:26:05;;;;;;;21.03;19.73;;;;;;;;;;5035546;28;20414;-84
2021/10/04 04:28:32;;;;;;;20.67;19.47;;;;;;;;;;5035322;28;20413;-84
2021/10/04 04:31:01;;;;;;;20.30;18.97;;;;;;;;;;5035704;28;20925;-84
2021/10/04 04:33:29;;;;;;;21.27;19.87;;;;;;;;;;5035353;28;20438;-84
2021/10/04 04:35:56;;;;;;;20.07;18.97;;;;;;;;;;5035330;28;20479;-84
2021/10/04 04:38:24;;;;;;;19.77;18.47;;;;;;;;;;5035739;28;20418;-85
2021/10/04 04:40:51;;;;;;;20.63;19.43;;;;;;;;;;5034514;28;20414;-84
2021/10/04 04:43:18;;;;;;;20.37;19.23;;;;;;;;;;5035565;28;20443;-84
2021/10/04 04:45:46;;;;;;;21.10;19.80;;;;;;;;;;5035536;28;20418;-84
2021/10/04 04:48:14;;;;;;;20.33;19.23;;;;;;;;;;5035234;28;20406;-84
2021/10/04 04:50:42;;;;;;;21.10;19.83;;;;;;;;;;5035191;28;20811;-84
2021/10/04 04:53:09;;;;;;;21.10;19.60;;;;;;;;;;5033768;28;20464;-84
2021/10/04 04:55:37;;;;;;;21.60;20.07;;;;;;;;;;5035084;28;20461;-84
2021/10/04 04:58:06;;;;;;;20.10;18.90;;;;;;;;;;5017632;28;20517;-84
2021/10/04 05:00:33;;;;;;;21.13;19.83;;;;;;;;;;5034732;28;20453;-84
2021/10/04 05:03:01;;;;;;;21.30;20.10;;;;;;;;;;5033909;28;20425;-83
2021/10/04 05:05:29;;;;;;;21.10;19.57;;;;;;;;;;5035046;28;20432;-84
2021/10/04 05:07:57;;;;;;;21.10;19.53;;;;;;;;;;5035041;28;20409;-85
2021/10/04 05:10:24;;;;;;;20.97;19.67;;;;;;;;;;5034947;28;20466;-84
2021/10/04 05:12:52;;;;;;;21.57;20.17;;;;;;;;;;5034921;28;20413;-84
2021/10/04 05:15:19;;;;;;;21.47;20.20;;;;;;;;;;5034313;28;20970;-84
2021/10/04 05:17:46;;;;;;;22.13;20.60;;;;;;;;;;5034442;28;20414;-84
2021/10/04 05:20:14;;;;;;;20.70;19.50;;;;;;;;;;5034053;28;20456;-83
2021/10/04 05:22:42;;;;;;;20.63;19.53;;;;;;;;;;5034245;28;20451;-84
2021/10/04 05:25:11;;;;;;;20.70;19.30;;;;;;;;;;5035043;28;20418;-84
2021/10/04 05:27:39;;;;;;;20.97;19.67;;;;;;;;;;5033343;28;20472;-84
2021/10/04 05:30:07;;;;;;;21.20;19.93;;;;;;;;;;5034529;28;20418;-83
2021/10/04 05:32:34;;;;;;;21.00;19.70;;;;;;;;;;5032913;28;20995;-84
2021/10/04 05:35:02;;;;;;;21.07;19.80;;;;;;;;;;5034629;28;20457;-84
2021/10/04 05:37:29;;;;;;;20.87;19.60;;;;;;;;;;5034388;28;20444;-84
2021/10/04 05:39:58;;;;;;;21.70;20.40;;;;;;;;;;5034465;28;20414;-84
2021/10/04 05:42:27;;;;;;;21.20;19.90;;;;;;;;;;5034058;28;20421;-83
2021/10/04 05:44:55;;;;;;;21.53;19.93;;;;;;;;;;5034307;28;20832;-84
2021/10/04 05:47:22;;;;;;;21.20;19.90;;;;;;;;;;5034011;28;20440;-84
2021/10/04 05:49:49;;;;;;;20.97;19.67;;;;;;;;;;5033837;28;20414;-84
2021/10/04 05:52:17;;;;;;;20.57;19.47;;;;;;;;;;5033726;28;20917;-84
2021/10/04 05:54:44;;;;;;;20.80;19.50;;;;;;;;;;5033833;28;20422;-84
2021/10/04 05:57:13;;;;;;;21.47;20.17;;;;;;;;;;5033641;28;20406;-84
2021/10/04 05:59:40;;;;;;;19.97;18.77;;;;;;;;;;5034074;28;20454;-84
2021/10/04 06:02:09;;;;;;;19.77;18.47;;;;;;;;;;5033477;28;20414;-84
2021/10/04 06:04:36;;;;;;;19.60;18.50;;;;;;;;;;5032777;28;20422;-84
2021/10/04 06:07:04;;;;;;;20.37;18.97;;;;;;;;;;5033841;28;20440;-84
2021/10/04 06:09:31;;;;;;;20.13;19.03;;;;;;;;;;5033910;28;20429;-80
2021/10/04 06:11:58;;;;;;;20.33;19.00;;;;;;;;;;5033766;28;20922;-82
2021/10/04 06:14:27;;;;;;;20.17;18.87;;;;;;;;;;5032197;28;20882;-82
2021/10/04 06:16:55;;;;;;;20.17;18.97;;;;;;;;;;5033320;28;20461;-85
2021/10/04 06:19:22;;;;;;;20.80;19.33;;;;;;;;;;5033193;28;20466;-85
2021/10/04 06:21:50;;;;;;;20.10;18.80;;;;;;;;;;5033405;28;20406;-82
2021/10/04 06:24:17;;;;;;;20.40;19.20;;;;;;;;;;5032974;28;20454;-82
2021/10/04 06:26:45;;;;;;;20.57;19.13;;;;;;;;;;5033175;28;20951;-83
2021/10/04 06:29:12;;;;;;;20.40;19.30;;;;;;;;;;5031909;28;20440;-83
2021/10/04 06:31:41;;;;;;;20.30;18.90;;;;;;;;;;5033247;28;20436;-82
2021/10/04 06:34:09;;;;;;;19.57;18.47;;;;;;;;;;5032885;28;20444;-83
2021/10/04 06:36:36;;;;;;;19.90;18.80;;;;;;;;;;5032813;28;20458;-82
2021/10/04 06:39:04;;;;;;;19.90;18.60;;;;;;;;;;5033067;28;20444;-82
2021/10/04 06:41:31;;;;;;;19.80;18.60;;;;;;;;;;5033096;28;20436;-82
2021/10/04 06:43:59;;;;;;;20.53;18.87;;;;;;;;;;5033146;28;20431;-82
2021/10/04 06:46:26;;;;;;;20.53;19.33;;;;;;;;;;5032769;28;20436;-82
2021/10/04 06:48:55;;;;;;;19.50;18.40;;;;;;;;;;5031171;28;20447;-82
2021/10/04 06:51:23;;;;;;;19.43;18.40;;;;;;;;;;5033115;28;20413;-82
2021/10/04 06:53:50;;;;;;;20.00;18.70;;;;;;;;;;5033043;28;20455;-82
2021/10/04 06:56:18;;;;;;;19.53;18.53;;;;;;;;;;5032917;28;20456;-82
2021/10/04 06:58:45;;;;;;;20.03;18.83;;;;;;;;;;5032911;28;20447;-83
2021/10/04 07:01:12;;;;;;;20.77;19.67;;;;;;;;;;5032550;28;20814;-83
2021/10/04 07:03:40;;;;;;;19.53;18.60;;;;;;;;;;5032948;28;20455;-82
2021/10/04 07:06:09;;;;;;;20.93;19.73;;;;;;;;;;5036836;28;20915;-82
2021/10/04 07:08:37;;;;;;;20.70;19.53;;;;;;;;;;5037008;28;20418;-81
2021/10/04 07:11:04;;;;;;;19.57;18.50;;;;;;;;;;5036775;28;20443;-82
2021/10/04 07:13:31;;;;;;;20.00;18.90;;;;;;;;;;5036731;28;20422;-81
2021/10/04 07:15:59;;;;;;;21.50;20.40;;;;;;;;;;5036907;28;20461;-81
2021/10/04 07:18:26;;;;;;;20.30;19.07;;;;;;;;;;5034590;28;20466;-90
2021/10/04 07:20:54;;;;;;;19.90;18.80;;;;;;;;;;5037218;28;20423;-82
2021/10/04 07:23:22;;;;;;;19.80;18.70;;;;;;;;;;5038184;28;20462;-88
2021/10/04 07:25:50;;;;;;;20.00;18.80;;;;;;;;;;5037018;28;20406;-89
2021/10/04 07:28:17;;;;;;;20.07;18.97;;;;;;;;;;5036858;28;20427;-94
2021/10/04 07:30:44;;;;;;;19.13;18.13;;;;;;;;;;5038592;28;20456;-92
2021/10/04 07:33:12;;;;;;;18.63;17.53;;;;;;;;;;5039375;28;20444;-94
2021/10/04 07:35:40;;;;;;;19.00;17.97;;;;;;;;;;5037779;28;20827;-84
2021/10/04 07:38:07;;;;;;;19.13;18.03;;;;;;;;;;5035587;28;20885;-84
2021/10/04 07:40:36;;;;;;;19.20;18.10;;;;;;;;;;5036281;28;20425;-81
2021/10/04 07:43:04;;;;;;;19.67;18.57;;;;;;;;;;5036152;28;20435;-84
2021/10/04 07:45:32;;;;;;;19.33;18.33;;;;;;;;;;5036633;28;20450;-84
2021/10/04 07:48:00;;;;;;;20.00;18.90;;;;;;;;;;5036249;28;20502;-86
2021/10/04 07:50:27;;;;;;;19.40;18.40;;;;;;;;;;5036952;28;20442;-87
2021/10/04 07:52:55;;;;;;;20.17;19.07;;;;;;;;;;5036671;28;20418;-84
2021/10/04 07:55:23;;;;;;;19.20;18.20;;;;;;;;;;5035806;28;20429;-84
2021/10/04 07:57:52;;;;;;;18.83;17.80;;;;;;;;;;5035716;28;20447;-84
2021/10/04 08:00:20;;;;;;;19.30;18.30;;;;;;;;;;5035724;28;20987;-84
2021/10/04 08:02:48;;;;;;;19.40;18.20;;;;;;;;;;5035931;28;20772;-84
2021/10/04 08:05:15;;;;;;;19.20;17.80;;;;;;;;;;5035881;28;20940;-84
2021/10/04 08:07:43;;;;;;;19.13;17.93;;;;;;;;;;5035891;28;20421;-84
2021/10/04 08:10:11;;;;;;;19.33;18.33;;;;;;;;;;5035981;28;20466;-83
2021/10/04 08:12:38;;;;;;;20.00;18.90;;;;;;;;;;5035571;28;20426;-84
2021/10/04 08:15:08;;;;;;;19.00;17.90;;;;;;;;;;5035327;28;20430;-84
2021/10/04 08:17:36;;;;;;;20.33;19.23;;;;;;;;;;5035653;28;20478;-84
2021/10/04 08:20:04;;;;;;;20.50;19.20;;;;;;;;;;5035347;28;20498;-84
2021/10/04 08:22:32;;;;;;;21.03;19.73;;;;;;;;;;5035835;28;20446;-84
2021/10/04 08:25:00;;;;;;;21.23;20.03;;;;;;;;;;5035607;28;20452;-84
2021/10/04 08:27:27;;;;;;;21.03;19.90;;;;;;;;;;5035395;28;20943;-84
2021/10/04 08:29:55;;;;;;;21.70;20.43;;;;;;;;;;5035541;28;20411;-85
2021/10/04 08:32:25;;;;;;;20.27;19.07;;;;;;;;;;5027341;28;20434;-82
2021/10/04 08:34:52;;;;;;;19.50;18.50;;;;;;;;;;5014799;28;20443;-84
2021/10/04 08:37:19;;;;;;;19.30;18.10;;;;;;;;;;5014037;28;20489;-91
2021/10/04 08:39:47;;;;;;;19.50;18.50;;;;;;;;;;5013593;28;20428;-82
2021/10/04 08:42:15;;;;;;;20.83;19.47;;;;;;;;;;5014740;28;20782;-84
2021/10/04 08:44:43;;;;;;;20.50;19.30;;;;;;;;;;5015331;28;20856;-83
2021/10/04 08:47:10;;;;;;;20.53;19.40;;;;;;;;;;5015000;28;20423;-90
2021/10/04 08:49:39;;;;;;;20.40;19.40;;;;;;;;;;5017502;28;20430;-91
2021/10/04 08:52:07;;;;;;;20.73;19.57;;;;;;;;;;5015400;28;20440;-83
2021/10/04 08:54:35;;;;;;;20.53;19.43;;;;;;;;;;5015706;28;20407;-82
2021/10/04 08:57:02;;;;;;;20.70;19.30;;;;;;;;;;5015026;28;20496;-83
2021/10/04 08:59:31;;;;;;;19.57;18.50;;;;;;;;;;5015144;28;20442;-83
2021/10/04 09:02:23;;;;;;;20.67;19.37;;;;;;;;;;5015070;28;20415;-83
2021/10/04 09:05:06;;;;;;;20.10;18.80;;;;;;;;;;5015055;28;20432;-82
2021/10/04 09:07:40;;;;;;;20.07;18.97;;;;;;;;;;5002476;28;20507;-90
2021/10/04 09:10:09;;;;;;;20.17;19.10;;;;;;;;;;5016619;28;20414;-89
2021/10/04 09:12:43;;;;;;;20.57;19.57;;;;;;;;;;5017679;28;20453;-91
2021/10/04 09:15:23;;;;;;;21.37;20.13;;;;;;;;;;5017135;28;20407;-88
2021/10/04 09:17:51;;;;;;;20.23;19.13;;;;;;;;;;5015887;28;21044;-87
2021/10/04 09:20:18;;;;;;;20.70;19.50;;;;;;;;;;5015563;28;20467;-90
2021/10/04 09:22:47;;;;;;;20.00;19.00;;;;;;;;;;5014842;28;20440;-89
2021/10/04 09:25:15;;;;;;;20.30;19.20;;;;;;;;;;5016452;28;20443;-88
2021/10/04 09:27:43;;;;;;;20.23;19.13;;;;;;;;;;5014374;28;20419;-90
2021/10/04 09:30:15;;;;;;;20.63;19.23;;;;;;;;;;5015471;28;20415;-87
2021/10/04 09:32:43;;;;;;;21.60;19.73;;;;;;;;;;5015316;28;20513;-94
2021/10/04 09:35:12;;;;;;;20.87;19.37;;;;;;;;;;5015374;28;20479;-91
2021/10/04 09:37:39;;;;;;;20.70;19.63;;;;;;;;;;5015303;28;20453;-93
2021/10/04 09:40:25;;;;;;;20.10;19.00;;;;;;;;;;5014155;28;20450;-92
2021/10/04 09:42:52;;;;;;;20.17;19.07;;;;;;;;;;5015011;28;20418;-90
2021/10/04 09:45:19;;;;;;;19.73;18.53;;;;;;;;;;5014612;28;20408;-91
2021/10/04 09:47:47;;;;;;;20.57;19.27;;;;;;;;;;5015210;28;20421;-90
2021/10/04 09:50:15;;;;;;;20.40;19.30;;;;;;;;;;5014880;28;20445;-80
2021/10/04 09:52:44;;;;;;;21.00;19.90;;;;;;;;;;5013673;28;20416;-81
2021/10/04 09:55:27;;;;;;;20.37;19.17;;;;;;;;;;5013685;28;20442;-81
2021/10/04 09:57:55;;;;;;;19.80;18.63;;;;;;;;;;5013474;28;20559;-81
2021/10/04 10:00:25;;;;;;;20.00;18.83;;;;;;;;;;5013532;28;20450;-81
2021/10/04 10:02:55;;;;;;;19.90;18.90;;;;;;;;;;5014453;28;20912;-94
2021/10/04 10:05:24;;;;;;;19.40;18.20;;;;;;;;;;5014980;28;20953;-93
2021/10/04 10:07:51;;;;;;;19.77;18.50;;;;;;;;;;5014180;28;20442;-92
2021/10/04 10:10:19;;;;;;;19.87;18.77;;;;;;;;;;5014855;28;20812;-82
2021/10/04 10:12:48;;;;;;;20.50;19.30;;;;;;;;;;5014155;28;20439;-81
2021/10/04 10:15:19;;;;;;;19.70;18.70;;;;;;;;;;5014086;28;20409;-89
2021/10/04 10:17:48;;;;;;;19.83;18.53;;;;;;;;;;5012594;28;20462;-90
2021/10/04 10:20:17;;;;;;;20.50;19.40;;;;;;;;;;5013822;28;20476;-84
2021/10/04 10:22:49;;;;;;;19.70;18.70;;;;;;;;;;5013904;28;20411;-83
2021/10/04 10:25:30;;;;;;;19.90;18.63;;;;;;;;;;5014814;28;20441;-89
2021/10/04 10:27:59;;;;;;;19.80;18.70;;;;;;;;;;5015733;28;20430;-88
2021/10/04 10:30:28;;;;;;;21.03;19.93;;;;;;;;;;5015676;28;20416;-88
2021/10/04 10:32:56;;;;;;;20.30;19.20;;;;;;;;;;5015279;28;20416;-92
2021/10/04 10:35:51;;;;;;;19.53;18.33;;;;;;;;;;5014698;28;20427;-92
2021/10/04 10:38:19;;;;;;;20.27;19.27;;;;;;;;;;4954445;29;21062;-89
2021/10/04 10:41:01;;;;;;;20.93;19.73;;;;;;;;;;4953738;29;20465;-81
2021/10/04 10:43:30;;;;;;;20.77;19.67;;;;;;;;;;4951959;29;20431;-81
2021/10/04 10:45:57;;;;;;;20.07;18.70;;;;;;;;;;4952266;29;20430;-81
2021/10/04 10:48:41;;;;;;;19.87;18.60;;;;;;;;;;4952330;29;21279;-81
2021/10/04 10:51:10;;;;;;;20.00;18.73;;;;;;;;;;4952712;29;20423;-80
2021/10/04 10:53:38;;;;;;;21.77;20.00;;;;;;;;;;4952642;29;20489;-83
2021/10/04 10:56:06;;;;;;;19.53;18.23;;;;;;;;;;4951551;29;20430;-82
2021/10/04 10:58:37;;;;;;;19.10;18.00;;;;;;;;;;4952323;29;20857;-81
2021/10/04 11:01:06;;;;;;;20.33;19.23;;;;;;;;;;4936366;29;20560;-83
2021/10/04 11:03:40;;;;;;;19.53;18.43;;;;;;;;;;4952620;29;20447;-82
2021/10/04 11:06:08;;;;;;;19.20;18.00;;;;;;;;;;4952377;29;20465;-83
2021/10/04 11:08:55;;;;;;;19.10;18.00;;;;;;;;;;4952416;29;20443;-82
2021/10/04 11:11:23;;;;;;;19.53;18.37;;;;;;;;;;4952462;29;20515;-82
2021/10/04 11:13:59;;;;;;;20.33;18.93;;;;;;;;;;4977021;28;20434;-83
2021/10/04 11:16:31;;;;;;;19.53;18.43;;;;;;;;;;5012945;28;20448;-82
2021/10/04 11:18:59;;;;;;;20.03;18.93;;;;;;;;;;5011577;28;20480;-82
2021/10/04 11:21:27;;;;;;;19.67;18.57;;;;;;;;;;5012600;28;20442;-83
2021/10/04 11:23:56;;;;;;;20.80;19.50;;;;;;;;;;5013095;28;20430;-82
2021/10/04 11:26:24;;;;;;;19.90;18.70;;;;;;;;;;5012893;28;20415;-83
2021/10/04 11:28:53;;;;;;;20.47;19.17;;;;;;;;;;5012678;28;20962;-83
2021/10/04 11:31:23;;;;;;;20.27;19.07;;;;;;;;;;5012471;28;20450;-82
2021/10/04 11:33:51;;;;;;;20.37;19.07;;;;;;;;;;5013241;28;20454;-82
2021/10/04 11:36:19;;;;;;;20.83;19.60;;;;;;;;;;5012502;28;20434;-83
2021/10/04 11:38:48;;;;;;;20.57;19.27;;;;;;;;;;5012670;28;20442;-82
2021/10/04 11:41:22;;;;;;;20.23;19.07;;;;;;;;;;5012339;28;20932;-83
2021/10/04 11:43:49;;;;;;;20.53;19.43;;;;;;;;;;5012615;28;20439;-83
2021/10/04 11:46:17;;;;;;;20.67;18.97;;;;;;;;;;5012639;28;20410;-83
2021/10/04 11:48:46;;;;;;;19.90;18.50;;;;;;;;;;5012800;28;20411;-81
2021/10/04 11:51:24;;;;;;;19.60;18.30;;;;;;;;;;5014516;28;20454;-81
2021/10/04 11:53:52;;;;;;;19.83;18.50;;;;;;;;;;5006736;28;20467;-81
2021/10/04 11:56:19;;;;;;;19.07;17.90;;;;;;;;;;5004289;28;20417;-81
2021/10/04 11:58:50;;;;;;;20.97;19.53;;;;;;;;;;5005717;28;20478;-81
2021/10/04 12:01:33;;;;;;;20.17;18.80;;;;;;;;;;5004717;28;20413;-81
2021/10/04 12:04:06;;;;;;;20.03;18.80;;;;;;;;;;5005400;28;20439;-81
2021/10/04 12:06:34;;;;;;;20.00;18.90;;;;;;;;;;5003837;28;20416;-80
2021/10/04 12:09:01;;;;;;;20.43;19.13;;;;;;;;;;5000919;28;20450;-81
2021/10/04 12:11:29;;;;;;;20.80;19.40;;;;;;;;;;5006894;28;20404;-82
2021/10/04 12:13:57;;;;;;;20.40;19.10;;;;;;;;;;5006342;28;20421;-81
2021/10/04 12:16:28;;;;;;;19.80;18.70;;;;;;;;;;5003673;28;21017;-81
2021/10/04 12:18:56;;;;;;;20.87;19.57;;;;;;;;;;5000598;28;20586;-81
2021/10/04 12:21:27;;;;;;;20.43;19.23;;;;;;;;;;4995797;28;20433;-79
2021/10/04 12:24:08;;;;;;;20.63;19.23;;;;;;;;;;4995282;28;20904;-81
2021/10/04 12:26:46;;;;;;;19.97;18.77;;;;;;;;;;4993893;28;20474;-81
2021/10/04 12:29:13;;;;;;;22.17;20.43;;;;;;;;;;4995970;28;20415;-80
2021/10/04 12:31:40;;;;;;;20.70;19.30;;;;;;;;;;4995731;28;20452;-81
2021/10/04 12:34:19;;;;;;;20.77;19.37;;;;;;;;;;4996029;28;20443;-84
2021/10/04 12:36:49;;;;;;;20.50;19.30;;;;;;;;;;4995737;28;20425;-80
2021/10/04 12:39:17;;;;;;;21.03;19.73;;;;;;;;;;4995976;28;20414;-81
2021/10/04 12:41:45;;;;;;;20.33;19.13;;;;;;;;;;4996089;28;20481;-84
2021/10/04 12:44:14;;;;;;;20.47;19.27;;;;;;;;;;4996095;28;20414;-82
2021/10/04 12:46:41;;;;;;;20.37;19.07;;;;;;;;;;4995756;28;20430;-81
2021/10/04 12:49:19;;;;;;;20.90;19.60;;;;;;;;;;4995226;28;20446;-80
2021/10/04 12:51:46;;;;;;;21.50;20.00;;;;;;;;;;4995219;28;20471;-81
2021/10/04 12:54:15;;;;;;;20.93;19.60;;;;;;;;;;4995258;28;21007;-81
2021/10/04 12:56:51;;;;;;;20.90;19.70;;;;;;;;;;4994948;28;20432;-81
2021/10/04 12:59:19;;;;;;;20.87;19.67;;;;;;;;;;4995413;28;20449;-81
2021/10/04 13:01:50;;;;;;;22.17;20.40;;;;;;;;;;4994015;28;20427;-81
2021/10/04 13:04:18;;;;;;;22.23;20.70;;;;;;;;;;4995326;28;20438;-81
2021/10/04 13:06:45;;;;;;;21.37;20.00;;;;;;;;;;4993953;28;20429;-81
2021/10/04 13:09:13;;;;;;;21.40;20.10;;;;;;;;;;4994972;28;20417;-82
2021/10/04 13:11:47;;;;;;;22.00;20.70;;;;;;;;;;4995081;28;20455;-82
2021/10/04 13:14:14;;;;;;;20.97;19.50;;;;;;;;;;4994804;28;20461;-81
2021/10/04 13:16:42;;;;;;;21.10;19.60;;;;;;;;;;5007634;28;20410;-81
2021/10/04 13:19:09;;;;;;;21.23;19.83;;;;;;;;;;5014144;28;20502;-82
2021/10/04 13:21:36;;;;;;;21.07;19.80;;;;;;;;;;5014489;28;20840;-81
2021/10/04 13:24:04;;;;;;;21.03;19.70;;;;;;;;;;5014530;28;20441;-81
2021/10/04 13:26:32;;;;;;;20.97;19.47;;;;;;;;;;5012995;28;20452;-81
2021/10/04 13:29:01;;;;;;;21.00;19.60;;;;;;;;;;5014500;28;20441;-82
2021/10/04 13:31:29;;;;;;;21.10;19.70;;;;;;;;;;5013936;28;20445;-81
2021/10/04 13:33:57;;;;;;;21.17;19.87;;;;;;;;;;5014113;28;20817;-81
2021/10/04 13:36:24;;;;;;;21.63;20.33;;;;;;;;;;5013992;28;20415;-82
2021/10/04 13:38:52;;;;;;;22.03;20.33;;;;;;;;;;5014519;28;20461;-81
2021/10/04 13:41:19;;;;;;;21.23;19.93;;;;;;;;;;5013902;28;20443;-81
2021/10/04 13:43:47;;;;;;;21.00;19.60;;;;;;;;;;5012521;28;20445;-81
2021/10/04 13:46:16;;;;;;;20.67;19.47;;;;;;;;;;5014119;28;20448;-81
2021/10/04 13:48:43;;;;;;;21.47;20.00;;;;;;;;;;5013874;28;20417;-82
2021/10/04 13:51:11;;;;;;;20.87;19.50;;;;;;;;;;5013594;28;20461;-82
2021/10/04 13:53:38;;;;;;;42.57;31.47;;;;;;;;;;5013662;28;20435;-81
2021/10/04 13:56:06;;;;;;;21.60;20.10;;;;;;;;;;5013921;28;20450;-81
2021/10/04 13:58:34;;;;;;;20.50;19.20;;;;;;;;;;5013631;28;20494;-82
2021/10/04 14:01:03;;;;;;;20.43;19.23;;;;;;;;;;5013671;28;20448;-81
2021/10/04 14:03:31;;;;;;;20.60;19.40;;;;;;;;;;5013777;28;21216;-88
2021/10/04 14:06:00;;;;;;;21.10;19.90;;;;;;;;;;5014133;28;20439;-86
2021/10/04 14:08:27;;;;;;;21.30;19.90;;;;;;;;;;5014052;28;20906;-81
2021/10/04 14:10:54;;;;;;;20.87;19.67;;;;;;;;;;5014245;28;20456;-80
2021/10/04 14:13:22;;;;;;;21.10;19.73;;;;;;;;;;5013747;28;20424;-80
2021/10/04 14:15:49;;;;;;;20.67;19.40;;;;;;;;;;5014205;28;20438;-81
2021/10/04 14:18:17;;;;;;;20.47;19.20;;;;;;;;;;5013108;28;20467;-80
2021/10/04 14:20:45;;;;;;;20.80;19.60;;;;;;;;;;5013548;28;20412;-81
2021/10/04 14:23:13;;;;;;;20.97;19.77;;;;;;;;;;5013582;28;20444;-81
2021/10/04 14:25:40;;;;;;;22.27;20.70;;;;;;;;;;5013072;28;20424;-80